Greenwood, South Dakota
Current Conditions -  °F | °C
As of 2:35 AM on Monday 22 Dec 2014 (Local Time) from KYKN Reporting Station
Overcast Overcast  
Wind Chill: 34°   Ceiling: 1000
Heat Index: 39°   Visibility: 5mi
Dew Point: 37°   Wind: 8mph
Humidity: 93%   Direction: 160°SSE
Pressure: 29.51"   Gusts: NA
Location:  43.0908°N, 98.2525°W
Report Text: KYKN 220835Z AUTO 16007KT 5SM OVC010 04/03 A2951 RMK AO1 P0006
Loading
Personal Weather Stations






























Interactive Weather Map New forecast layout! Learn more

10-Day Weather Forecast

Advertisements
Track Severe Weather on mobile